createdAt,value
2023-05-05T00:01:13.781Z,3.23
2023-05-05T00:03:42.681Z,3.43
2023-05-05T00:06:10.855Z,3.50
2023-05-05T00:08:46.429Z,3.20
2023-05-05T00:11:15.831Z,2.80
2023-05-05T00:13:43.886Z,3.50
2023-05-05T00:16:11.972Z,3.20
2023-05-05T00:18:40.113Z,3.40
2023-05-05T00:21:08.312Z,3.53
2023-05-05T00:23:36.454Z,3.43
2023-05-05T00:26:04.582Z,8.07
2023-05-05T00:28:34.057Z,3.57
2023-05-05T00:31:02.308Z,6.03
2023-05-05T00:33:30.573Z,3.13
2023-05-05T00:35:58.596Z,3.30
2023-05-05T00:38:26.646Z,3.30
2023-05-05T00:40:54.705Z,3.50
2023-05-05T00:43:22.779Z,3.87
2023-05-05T00:45:52.843Z,3.63
2023-05-05T00:48:24.463Z,3.10
2023-05-05T00:50:52.511Z,3.00
2023-05-05T00:53:20.769Z,3.40
2023-05-05T00:55:48.788Z,3.30
2023-05-05T00:58:17.101Z,3.13
2023-05-05T01:00:45.420Z,4.67
2023-05-05T01:03:15.449Z,3.47
2023-05-05T01:05:47.628Z,4.67
2023-05-05T01:08:24.678Z,3.40
2023-05-05T01:10:54.500Z,3.40
2023-05-05T01:13:29.126Z,3.47
2023-05-05T01:16:01.193Z,2.80
2023-05-05T01:18:33.827Z,2.80
2023-05-05T01:21:05.166Z,3.40
2023-05-05T01:23:44.776Z,3.50
2023-05-05T01:26:25.857Z,3.13
2023-05-05T01:29:03.000Z,3.93
2023-05-05T01:31:54.641Z,3.13
2023-05-05T01:34:30.518Z,3.27
2023-05-05T01:37:04.725Z,3.30
2023-05-05T01:39:34.228Z,3.20
2023-05-05T01:42:06.322Z,3.40
2023-05-05T01:44:35.050Z,3.50
2023-05-05T01:47:04.606Z,3.10
2023-05-05T01:49:32.707Z,3.30
2023-05-05T01:52:00.781Z,5.60
2023-05-05T01:54:28.964Z,3.57
2023-05-05T01:56:57.572Z,3.17
2023-05-05T01:59:26.169Z,8.27
2023-05-05T02:01:54.245Z,4.87
2023-05-05T02:04:23.733Z,4.47
2023-05-05T02:06:53.303Z,3.20
2023-05-05T02:09:21.595Z,3.27
2023-05-05T02:11:49.711Z,3.13
2023-05-05T02:14:17.905Z,3.33
2023-05-05T02:16:45.973Z,2.90
2023-05-05T02:19:14.273Z,2.80
2023-05-05T02:21:45.794Z,5.80
2023-05-05T02:24:13.881Z,3.77
2023-05-05T02:26:41.957Z,3.23
2023-05-05T02:29:11.692Z,3.47
2023-05-05T02:31:40.868Z,3.97
2023-05-05T02:34:08.955Z,6.53
2023-05-05T02:36:39.158Z,4.10
2023-05-05T02:39:26.247Z,2.93
2023-05-05T02:41:54.774Z,3.30
2023-05-05T02:44:23.507Z,3.57
2023-05-05T02:46:51.623Z,3.30
2023-05-05T02:49:19.739Z,3.27
2023-05-05T02:51:47.788Z,4.47
2023-05-05T02:54:17.284Z,3.20
2023-05-05T02:56:48.455Z,3.13
2023-05-05T02:59:19.184Z,4.23
2023-05-05T03:01:52.482Z,3.37
2023-05-05T03:04:23.692Z,3.00
2023-05-05T03:06:51.724Z,3.37
2023-05-05T03:09:24.150Z,4.03
2023-05-05T03:11:55.998Z,5.93
2023-05-05T03:14:24.129Z,3.80
2023-05-05T03:16:52.269Z,3.93
2023-05-05T03:19:20.369Z,3.70
2023-05-05T03:21:48.670Z,3.73
2023-05-05T03:24:17.776Z,3.63
2023-05-05T03:26:47.795Z,3.43
2023-05-05T03:29:15.879Z,3.57
2023-05-05T03:31:44.047Z,3.83
2023-05-05T03:34:12.198Z,3.43
2023-05-05T03:36:40.631Z,4.13
2023-05-05T03:39:08.834Z,4.00
2023-05-05T03:41:36.924Z,3.83
2023-05-05T03:44:09.206Z,3.93
2023-05-05T03:46:37.261Z,4.10
2023-05-05T03:49:05.384Z,3.90
2023-05-05T03:51:33.444Z,4.07
2023-05-05T03:54:01.503Z,4.23
2023-05-05T03:56:29.563Z,4.07
2023-05-05T03:58:57.669Z,3.83
2023-05-05T04:01:41.988Z,3.40
2023-05-05T04:04:10.792Z,4.60
2023-05-05T04:06:38.945Z,4.00
2023-05-05T04:09:07.240Z,4.30
2023-05-05T04:11:35.384Z,3.90
2023-05-05T04:14:03.535Z,4.70
2023-05-05T04:16:32.070Z,4.90
2023-05-05T04:19:02.786Z,4.10
2023-05-05T04:21:31.394Z,4.40
2023-05-05T04:23:59.441Z,4.17
2023-05-05T04:26:27.860Z,4.20
2023-05-05T04:28:56.747Z,4.60
2023-05-05T04:31:24.956Z,4.87
2023-05-05T04:33:53.030Z,4.67
2023-05-05T04:36:22.506Z,4.20
2023-05-05T04:38:50.604Z,4.60
2023-05-05T04:41:18.710Z,5.40
2023-05-05T04:43:47.051Z,4.73
2023-05-05T04:46:15.218Z,4.87
2023-05-05T04:48:43.252Z,7.17
2023-05-05T04:51:14.118Z,4.50
2023-05-05T04:53:43.581Z,4.50
2023-05-05T04:56:11.793Z,4.50
2023-05-05T04:58:39.909Z,4.77
2023-05-05T05:01:08.008Z,5.67
2023-05-05T05:03:36.697Z,5.50
2023-05-05T05:06:04.992Z,4.80
2023-05-05T05:08:33.088Z,4.00
2023-05-05T05:11:02.564Z,5.07
2023-05-05T05:13:30.679Z,4.30
2023-05-05T05:15:58.685Z,4.33
2023-05-05T05:18:26.953Z,4.37
2023-05-05T05:20:55.084Z,4.90
2023-05-05T05:23:26.374Z,4.40
2023-05-05T05:25:54.489Z,5.07
2023-05-05T05:28:23.976Z,5.03
2023-05-05T05:30:52.687Z,4.83
2023-05-05T05:33:20.860Z,6.83
2023-05-05T05:35:49.032Z,4.67
2023-05-05T05:38:17.681Z,4.97
2023-05-05T05:40:45.782Z,4.80
2023-05-05T05:43:13.940Z,5.10
2023-05-05T05:45:43.456Z,4.80
2023-05-05T05:48:11.622Z,4.57
2023-05-05T05:50:39.717Z,5.47
2023-05-05T05:53:07.805Z,4.90
2023-05-05T05:55:36.002Z,4.97
2023-05-05T05:58:04.093Z,4.80
2023-05-05T06:00:32.270Z,4.73
2023-05-05T06:03:02.372Z,5.80
2023-05-05T06:05:30.527Z,4.83
2023-05-05T06:07:58.633Z,4.60
2023-05-05T06:10:28.353Z,6.40
2023-05-05T06:12:56.780Z,4.63
2023-05-05T06:15:25.914Z,4.83
2023-05-05T06:17:54.146Z,4.93
2023-05-05T06:20:23.608Z,5.20
2023-05-05T06:22:51.666Z,5.43
2023-05-05T06:25:19.742Z,5.20
2023-05-05T06:27:47.792Z,7.30
2023-05-05T06:30:15.942Z,4.80
2023-05-05T06:32:44.102Z,5.03
2023-05-05T06:35:13.533Z,5.27
2023-05-05T06:37:44.207Z,5.37
2023-05-05T06:40:13.019Z,6.20
2023-05-05T06:42:41.445Z,5.60
2023-05-05T06:45:10.773Z,4.70
2023-05-05T06:47:38.894Z,4.87
2023-05-05T06:50:09.314Z,5.50
2023-05-05T06:52:37.655Z,4.97
2023-05-05T06:55:07.949Z,5.37
2023-05-05T06:57:36.049Z,7.47
2023-05-05T07:00:05.847Z,5.53
2023-05-05T07:02:34.265Z,5.33
2023-05-05T07:05:02.499Z,5.20
2023-05-05T07:07:31.853Z,5.77
2023-05-05T07:10:00.163Z,5.43
2023-05-05T07:12:30.647Z,8.50
2023-05-05T07:14:58.725Z,5.27
2023-05-05T07:17:26.990Z,5.33
2023-05-05T07:19:55.614Z,6.67
2023-05-05T07:22:23.767Z,5.50
2023-05-05T07:24:53.398Z,5.50
2023-05-05T07:27:22.675Z,4.90
2023-05-05T07:29:52.222Z,5.90
2023-05-05T07:32:20.324Z,5.20
2023-05-05T07:34:54.380Z,5.27
2023-05-05T07:37:22.435Z,4.97
2023-05-05T07:39:50.519Z,5.33
2023-05-05T07:42:18.569Z,5.00
2023-05-05T07:44:46.741Z,5.70
2023-05-05T07:47:16.251Z,7.40
2023-05-05T07:49:49.650Z,6.30
2023-05-05T07:52:17.783Z,5.43
2023-05-05T07:54:47.825Z,8.40
2023-05-05T07:57:15.951Z,4.73
2023-05-05T07:59:44.069Z,7.93
2023-05-05T08:02:12.747Z,7.10
2023-05-05T08:04:42.300Z,5.30
2023-05-05T08:07:10.573Z,5.03
2023-05-05T08:09:38.826Z,4.67
2023-05-05T08:12:07.182Z,4.60
2023-05-05T08:14:35.409Z,5.50
2023-05-05T08:17:03.553Z,5.40
2023-05-05T08:19:31.627Z,5.23
2023-05-05T08:22:01.606Z,4.63
2023-05-05T08:24:38.512Z,5.67
2023-05-05T08:27:06.619Z,7.17
2023-05-05T08:29:34.699Z,5.23
2023-05-05T08:32:02.794Z,4.90
2023-05-05T08:34:30.944Z,5.13
2023-05-05T08:37:00.445Z,4.90
2023-05-05T08:39:28.525Z,4.77
2023-05-05T08:41:56.682Z,5.03
2023-05-05T08:44:26.949Z,4.60
2023-05-05T08:46:55.262Z,5.33
2023-05-05T08:49:23.374Z,5.70
2023-05-05T08:51:51.414Z,5.20
2023-05-05T08:54:21.185Z,5.37
2023-05-05T08:57:04.527Z,4.80
2023-05-05T08:59:32.983Z,7.23
2023-05-05T09:02:01.218Z,6.80
2023-05-05T09:04:29.367Z,5.97
2023-05-05T09:06:59.070Z,5.03
2023-05-05T09:09:28.527Z,4.70
2023-05-05T09:11:56.866Z,7.90
2023-05-05T09:14:38.912Z,5.40
2023-05-05T09:17:07.168Z,5.47
2023-05-05T09:19:35.550Z,5.07
2023-05-05T09:22:03.658Z,4.40
2023-05-05T09:24:33.187Z,4.97
2023-05-05T09:27:01.717Z,5.20
2023-05-05T09:29:29.806Z,4.77
2023-05-05T09:32:05.928Z,4.80
2023-05-05T09:34:35.074Z,5.03
2023-05-05T09:37:03.364Z,4.50
2023-05-05T09:39:32.979Z,5.17
2023-05-05T09:42:01.401Z,4.73
2023-05-05T09:44:36.160Z,5.00
2023-05-05T09:47:09.486Z,4.00
2023-05-05T09:49:43.135Z,4.83
2023-05-05T09:52:15.530Z,4.70
2023-05-05T09:54:45.241Z,4.40
2023-05-05T09:57:27.187Z,4.43
2023-05-05T09:59:58.835Z,4.40
2023-05-05T10:02:36.744Z,4.07
2023-05-05T10:05:09.267Z,4.63
2023-05-05T10:07:37.996Z,4.80
2023-05-05T10:10:09.065Z,4.60
2023-05-05T10:12:37.668Z,4.63
2023-05-05T10:15:06.792Z,4.27
2023-05-05T10:17:38.247Z,5.43
2023-05-05T10:20:10.094Z,4.17
2023-05-05T10:22:38.362Z,4.63
2023-05-05T10:25:13.638Z,4.93
2023-05-05T10:27:44.770Z,4.60
2023-05-05T10:30:15.101Z,4.93
2023-05-05T10:32:57.417Z,3.73
2023-05-05T10:35:33.976Z,4.17
2023-05-05T10:38:02.031Z,4.00
2023-05-05T10:40:31.509Z,4.50
2023-05-05T10:42:59.578Z,4.10
2023-05-05T10:45:27.784Z,3.97
2023-05-05T10:47:57.155Z,5.33
2023-05-05T10:50:29.976Z,5.50
2023-05-05T10:53:05.040Z,4.27
2023-05-05T10:55:38.441Z,3.90
2023-05-05T10:58:06.549Z,4.40
2023-05-05T11:00:58.725Z,6.37
2023-05-05T11:03:27.029Z,4.30
2023-05-05T11:06:16.428Z,5.37
2023-05-05T11:08:50.307Z,4.60
2023-05-05T11:11:19.782Z,4.30
2023-05-05T11:13:47.879Z,3.97
2023-05-05T11:16:44.959Z,4.83
2023-05-05T11:19:45.748Z,4.17
2023-05-05T11:22:13.818Z,4.57
2023-05-05T11:24:42.340Z,4.53
2023-05-05T11:27:11.814Z,6.10
2023-05-05T11:30:14.212Z,4.90
2023-05-05T11:32:42.386Z,4.03
2023-05-05T11:35:11.194Z,4.23
2023-05-05T11:37:39.224Z,9.67
2023-05-05T11:40:14.964Z,4.30
2023-05-05T11:42:44.442Z,3.93
2023-05-05T11:45:22.732Z,4.27
2023-05-05T11:47:50.828Z,3.50
2023-05-05T11:50:23.356Z,4.10
2023-05-05T11:52:51.647Z,3.53
2023-05-05T11:55:25.675Z,5.93
2023-05-05T11:57:55.192Z,4.33
2023-05-05T12:00:33.013Z,4.53
2023-05-05T12:03:01.180Z,4.00
2023-05-05T12:05:29.297Z,4.23
2023-05-05T12:07:58.662Z,4.00
2023-05-05T12:10:26.979Z,4.43
2023-05-05T12:12:56.609Z,4.50
2023-05-05T12:15:32.146Z,4.10
2023-05-05T12:18:02.744Z,4.20
2023-05-05T12:20:35.089Z,4.33
2023-05-05T12:23:04.219Z,5.33
2023-05-05T12:25:39.251Z,5.00
2023-05-05T12:28:09.263Z,4.10
2023-05-05T12:30:37.613Z,4.07
2023-05-05T12:33:06.465Z,4.70
2023-05-05T12:35:34.676Z,4.23
2023-05-05T12:38:03.197Z,4.00
2023-05-05T12:40:44.072Z,4.63
2023-05-05T12:43:28.743Z,4.40
2023-05-05T12:46:10.014Z,4.53
2023-05-05T12:48:39.155Z,4.20
2023-05-05T12:51:17.454Z,4.50
2023-05-05T12:53:45.724Z,3.67
2023-05-05T12:56:32.994Z,4.30
2023-05-05T12:59:02.914Z,4.83
2023-05-05T13:01:31.230Z,4.40
2023-05-05T13:04:12.912Z,4.33
2023-05-05T13:06:41.348Z,4.37
2023-05-05T13:09:10.860Z,3.93
2023-05-05T13:11:39.369Z,4.43
2023-05-05T13:14:09.381Z,3.63
2023-05-05T13:16:37.469Z,4.10
2023-05-05T13:19:05.571Z,3.70
2023-05-05T13:21:33.684Z,4.10
2023-05-05T13:24:19.101Z,3.90
2023-05-05T13:26:49.893Z,4.13
2023-05-05T13:29:19.384Z,6.03
2023-05-05T13:31:47.554Z,4.27
2023-05-05T13:34:15.699Z,5.03
2023-05-05T13:36:44.339Z,4.27
2023-05-05T13:39:12.706Z,4.57
2023-05-05T13:41:40.796Z,3.90
2023-05-05T13:44:08.862Z,3.87
2023-05-05T13:46:38.403Z,3.63
2023-05-05T13:49:06.512Z,3.80
2023-05-05T13:51:35.130Z,3.80
2023-05-05T13:54:05.572Z,3.80
2023-05-05T13:56:33.967Z,3.53
2023-05-05T13:59:02.495Z,4.27
2023-05-05T14:01:31.093Z,4.30
2023-05-05T14:04:03.665Z,3.40
2023-05-05T14:06:33.678Z,3.70
2023-05-05T14:09:01.915Z,3.13
2023-05-05T14:11:31.621Z,3.37
2023-05-05T14:13:59.731Z,3.40
2023-05-05T14:16:27.881Z,3.03
2023-05-05T14:18:56.338Z,4.17
2023-05-05T14:21:25.910Z,3.20
2023-05-05T14:23:55.983Z,3.20
2023-05-05T14:26:45.139Z,3.33
2023-05-05T14:29:13.230Z,3.40
2023-05-05T14:31:41.400Z,3.80
2023-05-05T14:34:09.509Z,3.80
2023-05-05T14:36:38.975Z,3.73
2023-05-05T14:39:07.350Z,3.63
2023-05-05T14:41:35.507Z,3.73
2023-05-05T14:44:03.865Z,4.33
2023-05-05T14:46:31.968Z,3.00
2023-05-05T14:49:00.209Z,3.07
2023-05-05T14:51:28.337Z,2.93
2023-05-05T14:53:57.799Z,3.40
2023-05-05T14:56:26.577Z,3.53
2023-05-05T14:58:54.667Z,3.93
2023-05-05T15:01:24.798Z,4.40
2023-05-05T15:03:53.944Z,3.80
2023-05-05T15:06:22.125Z,3.23
2023-05-05T15:08:50.249Z,3.17
2023-05-05T15:11:19.686Z,3.37
2023-05-05T15:13:47.805Z,3.17
2023-05-05T15:16:18.477Z,3.40
2023-05-05T15:18:46.683Z,3.47
2023-05-05T15:21:14.769Z,2.97
2023-05-05T15:23:42.837Z,3.00
2023-05-05T15:26:10.994Z,3.03
2023-05-05T15:28:40.471Z,2.73
2023-05-05T15:31:08.522Z,3.57
2023-05-05T15:33:36.624Z,2.97
2023-05-05T15:36:43.573Z,3.40
2023-05-05T15:39:11.757Z,2.87
2023-05-05T15:41:39.846Z,2.73
2023-05-05T15:44:09.300Z,3.53
2023-05-05T15:46:37.559Z,2.53
2023-05-05T15:49:06.216Z,2.33
2023-05-05T15:51:34.323Z,2.43
2023-05-05T15:54:02.405Z,3.17
2023-05-05T15:56:30.519Z,2.43
2023-05-05T15:58:58.570Z,3.93
2023-05-05T16:01:28.090Z,3.00
2023-05-05T16:03:57.886Z,4.60
2023-05-05T16:06:27.357Z,2.90
2023-05-05T16:08:58.050Z,2.07
2023-05-05T16:11:26.619Z,1.90
2023-05-05T16:13:54.747Z,1.80
2023-05-05T16:16:22.857Z,2.00
2023-05-05T16:18:52.413Z,2.13
2023-05-05T16:21:20.469Z,2.63
2023-05-05T16:23:48.562Z,1.70
2023-05-05T16:26:16.671Z,1.70
2023-05-05T16:28:44.950Z,2.43
2023-05-05T16:31:13.596Z,1.90
2023-05-05T16:33:43.678Z,1.80
2023-05-05T16:36:13.331Z,1.87
2023-05-05T16:38:41.561Z,1.70
2023-05-05T16:41:09.801Z,1.70
2023-05-05T16:43:38.191Z,2.93
2023-05-05T16:46:07.128Z,2.00
2023-05-05T16:48:35.221Z,4.10
2023-05-05T16:51:03.299Z,2.23
2023-05-05T16:53:32.709Z,2.23
2023-05-05T16:56:00.819Z,4.37
2023-05-05T16:58:28.927Z,2.30
2023-05-05T17:00:57.037Z,2.47
2023-05-05T17:03:25.129Z,2.40
2023-05-05T17:05:53.946Z,2.87
2023-05-05T17:08:22.057Z,2.80
2023-05-05T17:10:51.596Z,3.23
2023-05-05T17:13:19.827Z,2.97
2023-05-05T17:15:50.099Z,3.00
2023-05-05T17:18:20.180Z,3.60
2023-05-05T17:20:51.488Z,3.00
2023-05-05T17:23:21.134Z,3.17
2023-05-05T17:25:49.237Z,3.40
2023-05-05T17:28:18.769Z,3.60
2023-05-05T17:30:46.948Z,3.80
2023-05-05T17:33:16.883Z,21.47
2023-05-05T17:35:44.934Z,36.93
2023-05-05T17:38:13.033Z,3.50
2023-05-05T17:40:41.203Z,6.07
2023-05-05T17:43:09.304Z,3.70
2023-05-05T17:45:38.849Z,3.90
2023-05-05T17:48:07.439Z,2.90
2023-05-05T17:50:35.580Z,4.20
2023-05-05T17:53:04.587Z,4.47
2023-05-05T17:55:32.667Z,4.03
2023-05-05T17:58:00.943Z,3.80
2023-05-05T18:00:29.114Z,3.40
2023-05-05T18:02:58.700Z,3.40
2023-05-05T18:05:26.902Z,4.20
2023-05-05T18:07:55.047Z,3.23
2023-05-05T18:10:23.362Z,4.13
2023-05-05T18:12:51.532Z,3.47
2023-05-05T18:15:19.641Z,3.93
2023-05-05T18:17:55.217Z,3.40
2023-05-05T18:20:24.739Z,3.40
2023-05-05T18:22:52.778Z,4.27
2023-05-05T18:25:21.083Z,3.47
2023-05-05T18:27:49.123Z,3.73
2023-05-05T18:30:17.472Z,4.17
2023-05-05T18:32:45.543Z,3.90
2023-05-05T18:35:13.621Z,3.60
2023-05-05T18:37:43.120Z,3.13
2023-05-05T18:40:12.229Z,4.00
2023-05-05T18:42:40.354Z,3.70
2023-05-05T18:45:09.937Z,3.00
2023-05-05T18:47:38.733Z,3.80
2023-05-05T18:50:08.197Z,4.00
2023-05-05T18:52:36.389Z,4.27
2023-05-05T18:55:06.856Z,3.60
2023-05-05T18:57:35.173Z,3.87
2023-05-05T19:00:03.432Z,3.40
2023-05-05T19:02:31.658Z,3.60
2023-05-05T19:04:59.906Z,4.30
2023-05-05T19:07:35.356Z,5.67
2023-05-05T19:10:05.945Z,4.30
2023-05-05T19:12:34.046Z,4.77
2023-05-05T19:15:02.445Z,4.13
2023-05-05T19:17:30.526Z,4.27
2023-05-05T19:19:58.800Z,4.40
2023-05-05T19:22:26.997Z,5.03
2023-05-05T19:24:55.038Z,4.30
2023-05-05T19:27:24.938Z,4.00
2023-05-05T19:29:53.263Z,4.73
2023-05-05T19:32:22.006Z,4.40
2023-05-05T19:34:50.264Z,4.70
2023-05-05T19:37:18.320Z,4.30
2023-05-05T19:39:46.397Z,4.70
2023-05-05T19:42:14.735Z,4.10
2023-05-05T19:44:44.185Z,5.13
2023-05-05T19:47:12.271Z,5.67
2023-05-05T19:49:40.336Z,5.40
2023-05-05T19:52:08.446Z,6.00
2023-05-05T19:54:37.285Z,5.10
2023-05-05T19:57:05.385Z,5.00
2023-05-05T19:59:33.702Z,5.10
2023-05-05T20:02:03.213Z,5.70
2023-05-05T20:04:31.291Z,6.03
2023-05-05T20:06:59.646Z,6.50
2023-05-05T20:09:28.092Z,5.60
2023-05-05T20:11:56.450Z,6.53
2023-05-05T20:14:38.228Z,6.23
2023-05-05T20:17:07.901Z,6.70
2023-05-05T20:19:35.981Z,6.93
2023-05-05T20:22:04.084Z,7.03
2023-05-05T20:24:33.821Z,7.67
2023-05-05T20:27:02.063Z,6.10
2023-05-05T20:29:30.148Z,7.33
2023-05-05T20:31:58.293Z,6.73
2023-05-05T20:34:28.226Z,6.20
2023-05-05T20:36:56.416Z,6.70
2023-05-05T20:39:24.502Z,7.50
2023-05-05T20:41:52.579Z,8.33
2023-05-05T20:44:20.841Z,8.03
2023-05-05T20:46:49.043Z,7.50
2023-05-05T20:49:17.268Z,8.00
2023-05-05T20:51:46.779Z,7.73
2023-05-05T20:54:14.920Z,7.37
2023-05-05T20:56:44.449Z,7.80
2023-05-05T20:59:12.475Z,6.50
2023-05-05T21:01:40.636Z,7.50
2023-05-05T21:04:08.721Z,7.70
2023-05-05T21:06:36.826Z,7.57
2023-05-05T21:09:06.843Z,8.23
2023-05-05T21:11:35.030Z,7.63
2023-05-05T21:14:03.092Z,8.67
2023-05-05T21:16:31.198Z,8.10
2023-05-05T21:18:59.546Z,7.47
2023-05-05T21:21:27.717Z,7.73
2023-05-05T21:23:55.964Z,8.27
2023-05-05T21:26:26.038Z,9.63
2023-05-05T21:28:54.194Z,7.83
2023-05-05T21:31:22.810Z,8.30
2023-05-05T21:33:50.988Z,10.00
2023-05-05T21:36:26.721Z,9.03
2023-05-05T21:38:56.645Z,9.50
2023-05-05T21:41:27.302Z,9.13
2023-05-05T21:43:55.672Z,8.13
2023-05-05T21:46:23.934Z,9.33
2023-05-05T21:48:52.067Z,8.80
2023-05-05T21:51:22.641Z,9.50
2023-05-05T21:53:58.870Z,9.00
2023-05-05T21:56:28.415Z,9.13
2023-05-05T21:58:56.513Z,9.33
2023-05-05T22:01:24.640Z,9.93
2023-05-05T22:03:52.852Z,8.83
2023-05-05T22:06:21.509Z,9.53
2023-05-05T22:08:49.704Z,9.80
2023-05-05T22:11:18.761Z,9.60
2023-05-05T22:13:48.697Z,11.43
2023-05-05T22:16:17.757Z,9.87
2023-05-05T22:18:46.034Z,11.00
2023-05-05T22:21:14.149Z,10.30
2023-05-05T22:23:42.512Z,10.00
2023-05-05T22:26:10.598Z,9.53
2023-05-05T22:28:38.774Z,10.07
2023-05-05T22:31:08.332Z,9.40
2023-05-05T22:33:36.551Z,8.70
2023-05-05T22:36:04.836Z,9.97
2023-05-05T22:38:32.915Z,15.80
2023-05-05T22:41:01.027Z,9.10
2023-05-05T22:43:29.120Z,9.97
2023-05-05T22:45:57.205Z,10.80
2023-05-05T22:48:26.926Z,9.30
2023-05-05T22:50:54.995Z,12.03
2023-05-05T22:53:23.044Z,9.90
2023-05-05T22:55:51.727Z,9.57
2023-05-05T22:58:25.809Z,9.07
2023-05-05T23:00:53.965Z,9.00
2023-05-05T23:03:22.373Z,9.90
2023-05-05T23:05:51.888Z,9.60
2023-05-05T23:08:20.434Z,9.83
2023-05-05T23:10:48.661Z,14.87
2023-05-05T23:13:16.909Z,11.70
2023-05-05T23:15:45.240Z,10.10
2023-05-05T23:18:13.289Z,10.03
2023-05-05T23:20:41.397Z,13.23
2023-05-05T23:23:10.930Z,11.17
2023-05-05T23:25:39.096Z,10.70
2023-05-05T23:28:07.259Z,12.40
2023-05-05T23:30:35.428Z,11.13
2023-05-05T23:33:04.950Z,13.60
2023-05-05T23:35:33.047Z,13.10
2023-05-05T23:38:01.178Z,14.13
2023-05-05T23:40:30.642Z,12.40
2023-05-05T23:42:58.710Z,12.93
2023-05-05T23:45:26.773Z,12.93
2023-05-05T23:47:54.958Z,14.67
2023-05-05T23:50:29.370Z,13.53
2023-05-05T23:52:58.748Z,12.43
2023-05-05T23:55:26.952Z,12.70
2023-05-05T23:57:56.491Z,12.83
